Terminal Aerodrome Forecast
Issued by NWS

Home | Current Version | Previous Version | Text Only | Print | Product List | Glossary On
Versions: 1 2 3 4 5 6 7 8 9 10 11 12 13 14 15 16 17 18 19 20 21 22 23 24 25 26 27 28 29 30 31 32 33 34 35
000
FTUS46 KOTX 271538 AAB
TAFCOE
TAF AMD
KCOE 271538Z 2716/2812 21007KT P6SM VCSH SCT030 BKN060
      WS020/23045KT
     FM271900 22021G32KT P6SM SCT080
     FM280500 20011KT P6SM SCT030
      AMD LTD TO CLD AND VIS=

USA.gov is the U.S. government's official web portal to all federal, state and local government web resources and services.